createdAt,value
2018-03-29T00:00:39.846Z,984.31
2018-03-29T00:01:39.862Z,984.33
2018-03-29T00:02:39.875Z,984.36
2018-03-29T00:03:39.889Z,984.36
2018-03-29T00:04:39.904Z,984.38
2018-03-29T00:05:39.919Z,984.43
2018-03-29T00:06:39.932Z,984.43
2018-03-29T00:07:39.947Z,984.45
2018-03-29T00:08:39.959Z,984.44
2018-03-29T00:09:39.974Z,984.45
2018-03-29T00:10:39.989Z,984.44
2018-03-29T00:11:40.005Z,984.37
2018-03-29T00:12:40.017Z,984.42
2018-03-29T00:13:40.031Z,984.5
2018-03-29T00:14:40.047Z,984.5
2018-03-29T00:15:40.060Z,984.52
2018-03-29T00:16:40.075Z,984.59
2018-03-29T00:17:40.143Z,984.59
2018-03-29T00:18:40.104Z,984.68
2018-03-29T00:19:40.116Z,984.62
2018-03-29T00:20:40.131Z,984.69
2018-03-29T00:21:40.146Z,984.74
2018-03-29T00:22:40.160Z,984.76
2018-03-29T00:23:40.174Z,984.78
2018-03-29T00:24:40.187Z,984.81
2018-03-29T00:25:40.204Z,984.82
2018-03-29T00:26:40.224Z,984.83
2018-03-29T00:27:40.231Z,984.8
2018-03-29T00:28:40.246Z,984.8
2018-03-29T00:29:40.259Z,984.79
2018-03-29T00:30:40.273Z,984.84
2018-03-29T00:31:40.287Z,984.83
2018-03-29T00:32:40.302Z,984.84
2018-03-29T00:33:40.316Z,984.85
2018-03-29T00:34:40.329Z,984.87
2018-03-29T00:35:40.344Z,984.88
2018-03-29T00:36:40.358Z,984.89
2018-03-29T00:37:40.377Z,984.93
2018-03-29T00:38:40.387Z,984.9
2018-03-29T00:39:40.411Z,984.97
2018-03-29T00:40:40.415Z,984.89
2018-03-29T00:41:40.429Z,984.93
2018-03-29T00:42:40.445Z,984.89
2018-03-29T00:43:40.458Z,984.96
2018-03-29T00:44:40.474Z,985.01
2018-03-29T00:45:40.484Z,984.99
2018-03-29T00:46:40.501Z,985
2018-03-29T00:47:40.514Z,985.01
2018-03-29T00:48:40.528Z,985.02
2018-03-29T00:49:40.542Z,985.05
2018-03-29T00:50:40.556Z,985.06
2018-03-29T00:51:40.570Z,985.05
2018-03-29T00:52:40.587Z,985.08
2018-03-29T00:53:40.599Z,985.11
2018-03-29T00:54:40.613Z,985.09
2018-03-29T00:55:40.629Z,985.11
2018-03-29T00:56:40.644Z,985.16
2018-03-29T00:57:40.655Z,985.18
2018-03-29T00:58:40.672Z,985.18
2018-03-29T00:59:40.684Z,985.25
2018-03-29T01:00:40.697Z,985.24
2018-03-29T01:01:40.713Z,985.25
2018-03-29T01:02:40.727Z,985.27
2018-03-29T01:03:40.738Z,985.33
2018-03-29T01:04:40.755Z,985.38
2018-03-29T01:05:40.767Z,985.34
2018-03-29T01:06:40.783Z,985.37
2018-03-29T01:07:40.797Z,985.43
2018-03-29T01:08:40.809Z,985.46
2018-03-29T01:09:40.824Z,985.45
2018-03-29T01:10:40.840Z,985.48
2018-03-29T01:11:40.854Z,985.53
2018-03-29T01:12:40.867Z,985.53
2018-03-29T01:13:40.880Z,985.58
2018-03-29T01:14:40.894Z,985.65
2018-03-29T01:15:40.910Z,985.7
2018-03-29T01:16:40.923Z,985.74
2018-03-29T01:17:40.937Z,985.76
2018-03-29T01:18:40.950Z,985.83
2018-03-29T01:19:40.965Z,985.85
2018-03-29T01:20:40.978Z,985.96
2018-03-29T01:21:40.994Z,985.92
2018-03-29T01:22:41.007Z,985.85
2018-03-29T01:23:41.022Z,985.94
2018-03-29T01:24:41.035Z,986
2018-03-29T01:25:41.048Z,985.99
2018-03-29T01:26:41.063Z,985.97
2018-03-29T01:27:41.080Z,986.02
2018-03-29T01:28:41.090Z,986.09
2018-03-29T01:29:41.105Z,986.08
2018-03-29T01:30:41.118Z,986.13
2018-03-29T01:31:41.132Z,986.18
2018-03-29T01:32:41.147Z,986.3
2018-03-29T01:33:41.160Z,986.23
2018-03-29T01:34:41.176Z,986.31
2018-03-29T01:35:41.190Z,986.27
2018-03-29T01:36:41.201Z,986.34
2018-03-29T01:37:41.216Z,986.31
2018-03-29T01:38:41.230Z,986.43
2018-03-29T01:39:41.243Z,986.42
2018-03-29T01:40:41.258Z,986.41
2018-03-29T01:41:41.272Z,986.4
2018-03-29T01:42:41.286Z,986.34
2018-03-29T01:43:41.306Z,986.33
2018-03-29T01:44:41.314Z,986.31
2018-03-29T01:45:41.327Z,986.2
2018-03-29T01:46:41.341Z,986.3
2018-03-29T01:47:41.354Z,986.27
2018-03-29T01:48:41.371Z,986.26
2018-03-29T01:49:41.391Z,986.38
2018-03-29T01:50:41.396Z,986.38
2018-03-29T01:51:41.412Z,986.38
2018-03-29T01:52:41.424Z,986.42
2018-03-29T01:53:41.441Z,986.51
2018-03-29T01:54:41.503Z,986.55
2018-03-29T01:55:41.464Z,986.54
2018-03-29T01:56:41.479Z,986.56
2018-03-29T01:57:41.495Z,986.58
2018-03-29T01:58:41.507Z,986.54
2018-03-29T01:59:41.520Z,986.59
2018-03-29T02:00:41.540Z,986.56
2018-03-29T02:01:41.546Z,986.59
2018-03-29T02:02:41.562Z,986.58
2018-03-29T02:03:41.578Z,986.59
2018-03-29T02:04:41.639Z,986.61
2018-03-29T02:05:41.602Z,986.65
2018-03-29T02:06:41.619Z,986.61
2018-03-29T02:07:41.630Z,986.65
2018-03-29T02:08:41.643Z,986.67
2018-03-29T02:09:41.712Z,986.69
2018-03-29T02:10:41.670Z,986.69
2018-03-29T02:11:41.683Z,986.74
2018-03-29T02:12:41.696Z,986.71
2018-03-29T02:13:41.710Z,986.77
2018-03-29T02:14:41.726Z,986.78
2018-03-29T02:15:41.739Z,986.81
2018-03-29T02:16:41.751Z,986.82
2018-03-29T02:17:41.766Z,986.8
2018-03-29T02:18:41.779Z,986.89
2018-03-29T02:19:41.794Z,986.94
2018-03-29T02:20:41.806Z,986.85
2018-03-29T02:21:41.820Z,986.91
2018-03-29T02:22:41.834Z,986.95
2018-03-29T02:23:41.846Z,986.99
2018-03-29T02:24:41.961Z,986.94
2018-03-29T02:25:41.873Z,987.01
2018-03-29T02:26:41.888Z,986.97
2018-03-29T02:27:41.900Z,987.01
2018-03-29T02:28:41.914Z,987.02
2018-03-29T02:29:41.927Z,987.03
2018-03-29T02:30:41.942Z,987.09
2018-03-29T02:31:41.955Z,987.09
2018-03-29T02:32:41.969Z,987.12
2018-03-29T02:33:41.980Z,987.12
2018-03-29T02:34:41.994Z,987.17
2018-03-29T02:35:42.007Z,987.19
2018-03-29T02:36:42.022Z,987.2
2018-03-29T02:37:42.035Z,987.21
2018-03-29T02:38:42.047Z,987.27
2018-03-29T02:39:42.060Z,987.3
2018-03-29T02:40:42.074Z,987.33
2018-03-29T02:41:42.090Z,987.35
2018-03-29T02:42:42.100Z,987.37
2018-03-29T02:43:42.117Z,987.42
2018-03-29T02:44:42.128Z,987.5
2018-03-29T02:45:42.142Z,987.53
2018-03-29T02:46:42.154Z,987.54
2018-03-29T02:47:42.168Z,987.57
2018-03-29T02:48:42.181Z,987.57
2018-03-29T02:49:42.194Z,987.6
2018-03-29T02:50:42.206Z,987.59
2018-03-29T02:51:42.221Z,987.64
2018-03-29T02:52:42.236Z,987.65
2018-03-29T02:53:42.246Z,987.63
2018-03-29T02:54:42.261Z,987.65
2018-03-29T02:55:42.274Z,987.58
2018-03-29T02:56:42.285Z,987.58
2018-03-29T02:57:42.299Z,987.67
2018-03-29T02:58:42.316Z,987.68
2018-03-29T02:59:42.328Z,987.73
2018-03-29T03:00:42.345Z,987.69
2018-03-29T03:01:42.354Z,987.83
2018-03-29T03:02:42.366Z,987.77
2018-03-29T03:03:42.380Z,987.74
2018-03-29T03:04:42.392Z,987.77
2018-03-29T03:05:42.405Z,987.8
2018-03-29T03:06:42.420Z,987.82
2018-03-29T03:07:42.432Z,987.75
2018-03-29T03:08:42.446Z,987.86
2018-03-29T03:09:42.458Z,987.83
2018-03-29T03:10:42.472Z,987.84
2018-03-29T03:11:42.483Z,987.85
2018-03-29T03:12:42.497Z,987.94
2018-03-29T03:13:42.511Z,987.99
2018-03-29T03:14:42.526Z,987.99
2018-03-29T03:15:42.541Z,988.01
2018-03-29T03:16:42.551Z,988
2018-03-29T03:17:42.568Z,988.07
2018-03-29T03:18:42.576Z,988.07
2018-03-29T03:19:42.590Z,988.14
2018-03-29T03:20:42.603Z,988.17
2018-03-29T03:21:42.617Z,988.09
2018-03-29T03:22:42.629Z,988.2
2018-03-29T03:23:42.642Z,988.24
2018-03-29T03:24:42.656Z,988.25
2018-03-29T03:25:42.668Z,988.2
2018-03-29T03:26:42.681Z,988.26
2018-03-29T03:27:42.696Z,988.3
2018-03-29T03:28:42.712Z,988.23
2018-03-29T03:29:42.721Z,988.32
2018-03-29T03:30:42.735Z,988.33
2018-03-29T03:31:42.748Z,988.39
2018-03-29T03:32:42.760Z,988.4
2018-03-29T03:33:42.778Z,988.35
2018-03-29T03:34:42.788Z,988.48
2018-03-29T03:35:42.800Z,988.39
2018-03-29T03:36:42.812Z,988.43
2018-03-29T03:37:42.825Z,988.44
2018-03-29T03:38:42.839Z,988.55
2018-03-29T03:39:42.853Z,988.5
2018-03-29T03:40:42.865Z,988.52
2018-03-29T03:41:42.876Z,988.6
2018-03-29T03:42:42.892Z,988.72
2018-03-29T03:43:42.905Z,988.63
2018-03-29T03:44:42.914Z,988.65
2018-03-29T03:45:42.928Z,988.64
2018-03-29T03:46:42.942Z,988.7
2018-03-29T03:47:42.955Z,988.83
2018-03-29T03:48:42.968Z,988.74
2018-03-29T03:49:42.980Z,988.74
2018-03-29T03:50:42.994Z,988.76
2018-03-29T03:51:43.006Z,988.76
2018-03-29T03:52:43.020Z,988.8
2018-03-29T03:53:43.033Z,988.85
2018-03-29T03:54:43.044Z,988.93
2018-03-29T03:55:43.058Z,988.87
2018-03-29T03:56:43.072Z,988.9
2018-03-29T03:57:43.084Z,988.9
2018-03-29T03:58:43.096Z,988.94
2018-03-29T03:59:43.110Z,988.93
2018-03-29T04:00:43.121Z,988.97
2018-03-29T04:01:43.134Z,989.03
2018-03-29T04:02:43.148Z,988.99
2018-03-29T04:03:43.160Z,989.13
2018-03-29T04:04:43.174Z,989.1
2018-03-29T04:05:43.186Z,989.13
2018-03-29T04:06:43.199Z,989.16
2018-03-29T04:07:43.212Z,989.11
2018-03-29T04:08:43.224Z,989.05
2018-03-29T04:09:43.236Z,989.18
2018-03-29T04:10:43.249Z,989.17
2018-03-29T04:11:43.263Z,989.16
2018-03-29T04:12:43.275Z,989.22
2018-03-29T04:13:43.288Z,989.28
2018-03-29T04:14:43.303Z,989.3
2018-03-29T04:15:43.315Z,989.38
2018-03-29T04:16:43.327Z,989.38
2018-03-29T04:17:43.339Z,989.43
2018-03-29T04:18:43.351Z,989.45
2018-03-29T04:19:43.367Z,989.45
2018-03-29T04:20:43.377Z,989.45
2018-03-29T04:21:43.390Z,989.5
2018-03-29T04:22:43.403Z,989.5
2018-03-29T04:23:43.428Z,989.46
2018-03-29T04:24:43.427Z,989.49
2018-03-29T04:25:43.441Z,989.53
2018-03-29T04:26:43.455Z,989.58
2018-03-29T04:27:43.466Z,989.64
2018-03-29T04:28:43.485Z,989.56
2018-03-29T04:29:43.501Z,989.59
2018-03-29T04:30:43.515Z,989.66
2018-03-29T04:31:43.517Z,989.72
2018-03-29T04:32:43.529Z,989.69
2018-03-29T04:33:43.544Z,989.68
2018-03-29T04:34:43.555Z,989.73
2018-03-29T04:35:43.567Z,989.65
2018-03-29T04:36:43.579Z,989.8
2018-03-29T04:37:43.594Z,989.66
2018-03-29T04:38:43.604Z,989.79
2018-03-29T04:39:43.617Z,989.78
2018-03-29T04:40:43.631Z,989.76
2018-03-29T04:41:43.647Z,989.75
2018-03-29T04:42:43.655Z,989.79
2018-03-29T04:43:43.667Z,989.86
2018-03-29T04:44:43.681Z,989.83
2018-03-29T04:45:43.695Z,989.92
2018-03-29T04:46:43.705Z,989.91
2018-03-29T04:47:43.719Z,989.98
2018-03-29T04:48:43.736Z,990.04
2018-03-29T04:49:43.744Z,989.96
2018-03-29T04:50:43.756Z,990.06
2018-03-29T04:51:43.770Z,990.08
2018-03-29T04:52:43.783Z,990.13
2018-03-29T04:53:43.794Z,990.08
2018-03-29T04:54:43.807Z,990.22
2018-03-29T04:55:43.819Z,990.23
2018-03-29T04:56:43.833Z,990.24
2018-03-29T04:57:43.848Z,990.23
2018-03-29T04:58:43.859Z,990.29
2018-03-29T04:59:43.868Z,990.3
2018-03-29T05:00:43.884Z,990.33
2018-03-29T05:01:43.901Z,990.33
2018-03-29T05:02:43.906Z,990.39
2018-03-29T05:03:43.920Z,990.37
2018-03-29T05:04:43.932Z,990.39
2018-03-29T05:05:43.944Z,990.43
2018-03-29T05:06:43.959Z,990.44
2018-03-29T05:07:43.971Z,990.49
2018-03-29T05:08:43.983Z,990.55
2018-03-29T05:09:43.995Z,990.54
2018-03-29T05:10:44.007Z,990.61
2018-03-29T05:11:44.020Z,990.58
2018-03-29T05:12:44.035Z,990.66
2018-03-29T05:13:44.044Z,990.63
2018-03-29T05:14:44.057Z,990.65
2018-03-29T05:15:44.119Z,990.63
2018-03-29T05:16:44.083Z,990.67
2018-03-29T05:17:44.097Z,990.68
2018-03-29T05:18:44.107Z,990.67
2018-03-29T05:19:44.118Z,990.67
2018-03-29T05:20:44.130Z,990.69
2018-03-29T05:21:44.145Z,990.73
2018-03-29T05:22:44.155Z,990.7
2018-03-29T05:23:44.167Z,990.71
2018-03-29T05:24:44.180Z,990.74
2018-03-29T05:25:44.194Z,990.75
2018-03-29T05:26:44.204Z,990.75
2018-03-29T05:27:44.220Z,990.76
2018-03-29T05:28:44.240Z,990.74
2018-03-29T05:29:44.243Z,990.73
2018-03-29T05:30:44.306Z,990.75
2018-03-29T05:31:44.268Z,990.83
2018-03-29T05:32:44.280Z,990.86
2018-03-29T05:33:44.292Z,990.86
2018-03-29T05:34:44.304Z,990.93
2018-03-29T05:35:44.319Z,990.91
2018-03-29T05:36:44.332Z,990.92
2018-03-29T05:37:44.343Z,991.01
2018-03-29T05:38:44.354Z,991.04
2018-03-29T05:39:44.367Z,991.05
2018-03-29T05:40:44.380Z,991.04
2018-03-29T05:41:44.391Z,991.04
2018-03-29T05:42:44.403Z,991.04
2018-03-29T05:43:44.418Z,991.1
2018-03-29T05:44:44.428Z,991.1
2018-03-29T05:45:44.494Z,991.13
2018-03-29T05:46:44.454Z,991.11
2018-03-29T05:47:44.465Z,991.17
2018-03-29T05:48:44.477Z,991.15
2018-03-29T05:49:44.491Z,991.16
2018-03-29T05:50:44.503Z,991.2
2018-03-29T05:51:44.515Z,991.17
2018-03-29T05:52:44.527Z,991.2
2018-03-29T05:53:44.540Z,991.17
2018-03-29T05:54:44.554Z,991.14
2018-03-29T05:55:44.565Z,991.18
2018-03-29T05:56:44.576Z,991.2
2018-03-29T05:57:44.590Z,991.22
2018-03-29T05:58:44.606Z,991.3
2018-03-29T05:59:44.613Z,991.26
2018-03-29T06:00:44.625Z,991.27
2018-03-29T06:01:44.639Z,991.28
2018-03-29T06:02:44.651Z,991.32
2018-03-29T06:03:44.664Z,991.32
2018-03-29T06:04:44.676Z,991.34
2018-03-29T06:05:44.688Z,991.41
2018-03-29T06:06:44.705Z,991.4
2018-03-29T06:07:44.713Z,991.43
2018-03-29T06:08:44.725Z,991.43
2018-03-29T06:09:44.737Z,991.46
2018-03-29T06:10:44.749Z,991.48
2018-03-29T06:11:44.761Z,991.53
2018-03-29T06:12:44.774Z,991.5
2018-03-29T06:13:44.787Z,991.55
2018-03-29T06:14:44.800Z,991.57
2018-03-29T06:15:44.811Z,991.52
2018-03-29T06:16:44.827Z,991.61
2018-03-29T06:17:44.858Z,991.58
2018-03-29T06:18:44.849Z,991.58
2018-03-29T06:19:44.860Z,991.59
2018-03-29T06:20:44.874Z,991.64
2018-03-29T06:21:44.885Z,991.65
2018-03-29T06:22:44.898Z,991.67
2018-03-29T06:23:44.910Z,991.69
2018-03-29T06:24:44.924Z,991.71
2018-03-29T06:25:44.937Z,991.74
2018-03-29T06:26:44.948Z,991.75
2018-03-29T06:27:44.961Z,991.81
2018-03-29T06:28:44.974Z,991.87
2018-03-29T06:29:44.985Z,991.85
2018-03-29T06:30:44.998Z,991.79
2018-03-29T06:31:45.010Z,991.81
2018-03-29T06:32:45.022Z,991.89
2018-03-29T06:33:45.035Z,991.86
2018-03-29T06:34:45.047Z,991.87
2018-03-29T06:35:45.059Z,991.86
2018-03-29T06:36:45.072Z,991.92
2018-03-29T06:37:45.085Z,991.98
2018-03-29T06:38:45.098Z,991.94
2018-03-29T06:39:45.109Z,991.99
2018-03-29T06:40:45.121Z,991.95
2018-03-29T06:41:45.135Z,992.12
2018-03-29T06:42:45.146Z,992.08
2018-03-29T06:43:45.159Z,992.1
2018-03-29T06:44:45.171Z,992.05
2018-03-29T06:45:45.185Z,992.11
2018-03-29T06:46:45.228Z,992.14
2018-03-29T06:47:45.212Z,992.07
2018-03-29T06:48:45.221Z,992.11
2018-03-29T06:49:45.234Z,992.18
2018-03-29T06:50:45.245Z,992.13
2018-03-29T06:51:45.258Z,992.18
2018-03-29T06:52:45.289Z,992.13
2018-03-29T06:53:45.284Z,992.16
2018-03-29T06:54:45.308Z,992.19
2018-03-29T06:55:45.313Z,992.12
2018-03-29T06:56:45.321Z,992.2
2018-03-29T06:57:45.334Z,992.19
2018-03-29T06:58:45.348Z,992.17
2018-03-29T06:59:45.359Z,992.15
2018-03-29T07:00:45.378Z,992.14
2018-03-29T07:01:45.383Z,992.21
2018-03-29T07:02:45.396Z,992.25
2018-03-29T07:03:45.414Z,992.2
2018-03-29T07:04:45.421Z,992.21
2018-03-29T07:05:45.437Z,992.22
2018-03-29T07:06:45.448Z,992.26
2018-03-29T07:07:45.460Z,992.23
2018-03-29T07:08:45.472Z,992.24
2018-03-29T07:09:45.485Z,992.31
2018-03-29T07:10:45.499Z,992.34
2018-03-29T07:11:45.516Z,992.3
2018-03-29T07:12:45.524Z,992.33
2018-03-29T07:13:45.539Z,992.3
2018-03-29T07:14:45.548Z,992.32
2018-03-29T07:15:45.561Z,992.35
2018-03-29T07:16:45.573Z,992.36
2018-03-29T07:17:45.588Z,992.35
2018-03-29T07:18:45.600Z,992.41
2018-03-29T07:19:45.614Z,992.35
2018-03-29T07:20:45.625Z,992.37
2018-03-29T07:21:45.677Z,992.39
2018-03-29T07:22:45.653Z,992.4
2018-03-29T07:23:45.663Z,992.4
2018-03-29T07:24:45.677Z,992.36
2018-03-29T07:25:45.690Z,992.42
2018-03-29T07:26:45.752Z,992.44
2018-03-29T07:27:45.716Z,992.43
2018-03-29T07:28:45.728Z,992.47
2018-03-29T07:29:45.744Z,992.5
2018-03-29T07:30:45.754Z,992.49
2018-03-29T07:31:45.816Z,992.48
2018-03-29T07:32:45.779Z,992.48
2018-03-29T07:33:45.793Z,992.52
2018-03-29T07:34:45.804Z,992.58
2018-03-29T07:35:45.845Z,992.57
2018-03-29T07:36:45.830Z,992.57
2018-03-29T07:37:45.844Z,992.59
2018-03-29T07:38:45.855Z,992.63
2018-03-29T07:39:45.869Z,992.65
2018-03-29T07:40:45.885Z,992.72
2018-03-29T07:41:45.895Z,992.72
2018-03-29T07:42:45.907Z,992.68
2018-03-29T07:43:45.920Z,992.66
2018-03-29T07:44:45.934Z,992.65
2018-03-29T07:45:45.946Z,992.71
2018-03-29T07:46:45.960Z,992.74
2018-03-29T07:47:45.973Z,992.72
2018-03-29T07:48:45.987Z,992.71
2018-03-29T07:49:45.999Z,992.79
2018-03-29T07:50:46.011Z,992.77
2018-03-29T07:51:46.025Z,992.75
2018-03-29T07:52:46.037Z,992.75
2018-03-29T07:53:46.050Z,992.77
2018-03-29T07:54:46.064Z,992.81
2018-03-29T07:55:46.078Z,992.82
2018-03-29T07:56:46.090Z,992.86
2018-03-29T07:57:46.104Z,992.81
2018-03-29T07:58:46.117Z,992.84
2018-03-29T07:59:46.131Z,992.87
2018-03-29T08:00:46.143Z,992.91
2018-03-29T08:01:46.157Z,992.93
2018-03-29T08:02:46.170Z,992.98
2018-03-29T08:03:46.182Z,992.96
2018-03-29T08:04:46.196Z,992.97
2018-03-29T08:05:46.210Z,992.95
2018-03-29T08:06:46.223Z,992.93
2018-03-29T08:07:46.237Z,992.96
2018-03-29T08:08:46.251Z,992.95
2018-03-29T08:09:46.263Z,992.99
2018-03-29T08:10:46.275Z,992.99
2018-03-29T08:11:46.289Z,992.96
2018-03-29T08:12:46.304Z,992.97
2018-03-29T08:13:46.318Z,992.99
2018-03-29T08:14:46.332Z,993
2018-03-29T08:15:46.346Z,992.93
2018-03-29T08:16:46.356Z,992.97
2018-03-29T08:17:46.371Z,993
2018-03-29T08:18:46.382Z,992.96
2018-03-29T08:19:46.395Z,993.03
2018-03-29T08:20:46.409Z,993.03
2018-03-29T08:21:46.433Z,993.02
2018-03-29T08:22:46.437Z,992.98
2018-03-29T08:23:46.449Z,993.05
2018-03-29T08:24:46.464Z,993.04
2018-03-29T08:25:46.481Z,993.05
2018-03-29T08:26:46.490Z,993.01
2018-03-29T08:27:46.503Z,993.07
2018-03-29T08:28:46.517Z,993.05
2018-03-29T08:29:46.530Z,993.04
2018-03-29T08:30:46.544Z,993.09
2018-03-29T08:31:46.558Z,993.11
2018-03-29T08:32:46.668Z,993.18
2018-03-29T08:33:46.584Z,993.14
2018-03-29T08:34:46.598Z,993.07
2018-03-29T08:35:46.612Z,993.06
2018-03-29T08:36:46.623Z,993.02
2018-03-29T08:37:46.638Z,993.02
2018-03-29T08:38:46.652Z,992.97
2018-03-29T08:39:46.665Z,993
2018-03-29T08:40:46.682Z,993.03
2018-03-29T08:41:46.693Z,993.02
2018-03-29T08:42:46.749Z,993.05
2018-03-29T08:43:46.719Z,993.01
2018-03-29T08:44:46.733Z,993.07
2018-03-29T08:45:46.745Z,993.05
2018-03-29T08:46:46.760Z,993.05
2018-03-29T08:47:46.774Z,992.99
2018-03-29T08:48:46.786Z,993.06
2018-03-29T08:49:46.800Z,993.03
2018-03-29T08:50:46.815Z,993.03
2018-03-29T08:51:46.826Z,993.05
2018-03-29T08:52:46.841Z,993.09
2018-03-29T08:53:46.854Z,993.05
2018-03-29T08:54:46.867Z,993.14
2018-03-29T08:55:46.881Z,993.06
2018-03-29T08:56:46.896Z,993.11
2018-03-29T08:57:46.910Z,993.07
2018-03-29T08:58:46.922Z,993.07
2018-03-29T08:59:46.939Z,993.11
2018-03-29T09:00:46.950Z,993.09
2018-03-29T09:01:46.973Z,993.09
2018-03-29T09:02:46.976Z,993.11
2018-03-29T09:03:46.991Z,993.07
2018-03-29T09:04:47.005Z,993.09
2018-03-29T09:05:47.018Z,993.18
2018-03-29T09:06:47.033Z,993.06
2018-03-29T09:07:47.047Z,993.13
2018-03-29T09:08:47.068Z,993.09
2018-03-29T09:09:47.073Z,993.09
2018-03-29T09:10:47.095Z,993.05
2018-03-29T09:11:47.100Z,992.98
2018-03-29T09:12:47.114Z,993.09
2018-03-29T09:13:47.127Z,993.15
2018-03-29T09:14:47.141Z,993.09
2018-03-29T09:15:47.156Z,993.06
2018-03-29T09:16:47.167Z,993.13
2018-03-29T09:17:47.183Z,993.05
2018-03-29T09:18:47.195Z,993.03
2018-03-29T09:19:47.211Z,992.92
2018-03-29T09:20:47.224Z,992.92
2018-03-29T09:21:47.236Z,992.91
2018-03-29T09:22:47.251Z,992.91
2018-03-29T09:23:47.265Z,992.96
2018-03-29T09:24:47.278Z,992.93
2018-03-29T09:25:47.293Z,992.97
2018-03-29T09:26:47.306Z,993.04
2018-03-29T09:27:47.319Z,993.1
2018-03-29T09:28:47.335Z,993.01
2018-03-29T09:29:47.391Z,993.05
2018-03-29T09:30:47.361Z,993.12
2018-03-29T09:31:47.374Z,993.2
2018-03-29T09:32:47.388Z,993.18
2018-03-29T09:33:47.402Z,993.18
2018-03-29T09:34:47.418Z,993.23
2018-03-29T09:35:47.432Z,993.25
2018-03-29T09:36:47.447Z,993.28
2018-03-29T09:37:47.463Z,993.31
2018-03-29T09:38:47.473Z,993.31
2018-03-29T09:39:47.487Z,993.29
2018-03-29T09:40:47.504Z,993.33
2018-03-29T09:41:47.517Z,993.32
2018-03-29T09:42:47.528Z,993.4
2018-03-29T09:43:47.544Z,993.47
2018-03-29T09:44:47.561Z,993.4
2018-03-29T09:45:47.570Z,993.46
2018-03-29T09:46:47.586Z,993.44
2018-03-29T09:47:47.610Z,993.43
2018-03-29T09:48:47.614Z,993.45
2018-03-29T09:49:47.627Z,993.45
2018-03-29T09:50:47.648Z,993.49
2018-03-29T09:51:47.656Z,993.45
2018-03-29T09:52:47.673Z,993.38
2018-03-29T09:53:47.685Z,993.43
2018-03-29T09:54:47.698Z,993.5
2018-03-29T09:55:47.713Z,993.39
2018-03-29T09:56:47.731Z,993.49
2018-03-29T09:57:47.746Z,993.47
2018-03-29T09:58:47.755Z,993.52
2018-03-29T09:59:47.770Z,993.53
2018-03-29T10:00:47.783Z,993.52
2018-03-29T10:01:47.798Z,993.51
2018-03-29T10:02:47.814Z,993.5
2018-03-29T10:03:47.828Z,993.5
2018-03-29T10:04:47.850Z,993.46
2018-03-29T10:05:47.855Z,993.52
2018-03-29T10:06:47.869Z,993.51
2018-03-29T10:07:47.883Z,993.54
2018-03-29T10:08:47.897Z,993.5
2018-03-29T10:09:47.912Z,993.53
2018-03-29T10:10:47.926Z,993.49
2018-03-29T10:11:47.941Z,993.49
2018-03-29T10:12:47.962Z,993.52
2018-03-29T10:13:47.970Z,993.49
2018-03-29T10:14:47.985Z,993.53
2018-03-29T10:15:47.999Z,993.53
2018-03-29T10:16:48.012Z,993.51
2018-03-29T10:17:48.027Z,993.6
2018-03-29T10:18:48.042Z,993.55
2018-03-29T10:19:48.055Z,993.59
2018-03-29T10:20:48.074Z,993.62
2018-03-29T10:21:48.086Z,993.62
2018-03-29T10:22:48.098Z,993.66
2018-03-29T10:23:48.113Z,993.68
2018-03-29T10:24:48.128Z,993.62
2018-03-29T10:25:48.143Z,993.63
2018-03-29T10:26:48.157Z,993.65
2018-03-29T10:27:48.174Z,993.63
2018-03-29T10:28:48.190Z,993.64
2018-03-29T10:29:48.200Z,993.57
2018-03-29T10:30:48.242Z,993.62
2018-03-29T10:31:48.232Z,993.72
2018-03-29T10:32:48.246Z,993.61
2018-03-29T10:33:48.260Z,993.66
2018-03-29T10:34:48.278Z,993.72
2018-03-29T10:35:48.319Z,993.67
2018-03-29T10:36:48.304Z,993.7
2018-03-29T10:37:48.319Z,993.67
2018-03-29T10:38:48.387Z,993.7
2018-03-29T10:39:48.349Z,993.71
2018-03-29T10:40:48.362Z,993.66
2018-03-29T10:41:48.378Z,993.69
2018-03-29T10:42:48.392Z,993.65
2018-03-29T10:43:48.407Z,993.73
2018-03-29T10:44:48.421Z,993.63
2018-03-29T10:45:48.438Z,993.62
2018-03-29T10:46:48.450Z,993.62
2018-03-29T10:47:48.468Z,993.61
2018-03-29T10:48:48.480Z,993.65
2018-03-29T10:49:48.496Z,993.61
2018-03-29T10:50:48.512Z,993.67
2018-03-29T10:51:48.524Z,993.64
2018-03-29T10:52:48.542Z,993.62
2018-03-29T10:53:48.556Z,993.66
2018-03-29T10:54:48.570Z,993.72
2018-03-29T10:55:48.588Z,993.67
2018-03-29T10:56:48.601Z,993.66
2018-03-29T10:57:48.617Z,993.63
2018-03-29T10:58:48.630Z,993.61
2018-03-29T10:59:48.647Z,993.57
2018-03-29T11:00:48.659Z,993.64
2018-03-29T11:01:48.677Z,993.64
2018-03-29T11:02:48.688Z,993.66
2018-03-29T11:03:48.704Z,993.67
2018-03-29T11:04:48.723Z,993.71
2018-03-29T11:05:48.735Z,993.71
2018-03-29T11:06:48.749Z,993.74
2018-03-29T11:07:48.767Z,993.71
2018-03-29T11:08:48.781Z,993.69
2018-03-29T11:09:48.795Z,993.73
2018-03-29T11:10:48.811Z,993.77
2018-03-29T11:11:48.828Z,993.77
2018-03-29T11:12:48.843Z,993.77
2018-03-29T11:13:48.855Z,993.74
2018-03-29T11:14:48.874Z,993.73
2018-03-29T11:15:48.892Z,993.73
2018-03-29T11:16:48.904Z,993.76
2018-03-29T11:17:48.918Z,993.77
2018-03-29T11:18:48.933Z,993.74
2018-03-29T11:19:48.948Z,993.73
2018-03-29T11:20:48.964Z,993.76
2018-03-29T11:21:48.978Z,993.78
2018-03-29T11:22:48.994Z,993.77
2018-03-29T11:23:49.009Z,993.83
2018-03-29T11:24:49.024Z,993.79
2018-03-29T11:25:49.048Z,993.82
2018-03-29T11:26:49.055Z,993.82
2018-03-29T11:27:49.070Z,993.77
2018-03-29T11:28:49.084Z,993.8
2018-03-29T11:29:49.101Z,993.76
2018-03-29T11:30:49.122Z,993.74
2018-03-29T11:31:49.130Z,993.74
2018-03-29T11:32:49.148Z,993.73
2018-03-29T11:33:49.162Z,993.69
2018-03-29T11:34:49.178Z,993.67
2018-03-29T11:35:49.192Z,993.63
2018-03-29T11:36:49.208Z,993.67
2018-03-29T11:37:49.226Z,993.68
2018-03-29T11:38:49.250Z,993.71
2018-03-29T11:39:49.254Z,993.71
2018-03-29T11:40:49.271Z,993.7
2018-03-29T11:41:49.287Z,993.68
2018-03-29T11:42:49.302Z,993.7
2018-03-29T11:43:49.318Z,993.8
2018-03-29T11:44:49.334Z,993.77
2018-03-29T11:45:49.348Z,993.8
2018-03-29T11:46:49.371Z,993.76
2018-03-29T11:47:49.380Z,993.75
2018-03-29T11:48:49.395Z,993.76
2018-03-29T11:49:49.411Z,993.73
2018-03-29T11:50:49.429Z,993.82
2018-03-29T11:51:49.464Z,993.8
2018-03-29T11:52:49.459Z,993.77
2018-03-29T11:53:49.473Z,993.78
2018-03-29T11:54:49.489Z,993.8
2018-03-29T11:55:49.504Z,993.77
2018-03-29T11:56:49.521Z,993.78
2018-03-29T11:57:49.535Z,993.76
2018-03-29T11:58:49.552Z,993.8
2018-03-29T11:59:49.572Z,993.84
2018-03-29T12:00:49.585Z,993.9
2018-03-29T12:01:49.600Z,993.81
2018-03-29T12:02:49.614Z,993.83
2018-03-29T12:03:49.631Z,993.79
2018-03-29T12:04:49.646Z,993.79
2018-03-29T12:05:49.662Z,993.82
2018-03-29T12:06:49.678Z,993.82
2018-03-29T12:07:49.695Z,993.83
2018-03-29T12:08:49.709Z,993.85
2018-03-29T12:09:49.726Z,993.88
2018-03-29T12:10:49.745Z,993.87
2018-03-29T12:11:49.758Z,993.85
2018-03-29T12:12:49.787Z,993.88
2018-03-29T12:13:49.791Z,993.88
2018-03-29T12:14:49.807Z,993.85
2018-03-29T12:15:49.820Z,993.85
2018-03-29T12:16:49.836Z,993.85
2018-03-29T12:17:49.853Z,993.84
2018-03-29T12:18:49.869Z,993.8
2018-03-29T12:19:49.884Z,993.87
2018-03-29T12:20:49.899Z,993.85
2018-03-29T12:21:49.918Z,993.87
2018-03-29T12:22:49.932Z,993.88
2018-03-29T12:23:49.947Z,993.95
2018-03-29T12:24:49.964Z,993.9
2018-03-29T12:25:49.979Z,993.91
2018-03-29T12:26:49.996Z,993.96
2018-03-29T12:27:50.010Z,993.91
2018-03-29T12:28:50.027Z,993.91
2018-03-29T12:29:50.092Z,993.93
2018-03-29T12:30:50.059Z,993.9
2018-03-29T12:31:50.075Z,993.93